createdAt,value
2018-10-12T00:01:06.573Z,20.70
2018-10-12T00:03:35.156Z,20.70
2018-10-12T00:06:03.749Z,20.70
2018-10-12T00:08:32.347Z,20.70
2018-10-12T00:11:00.953Z,20.70
2018-10-12T00:13:29.528Z,20.70
2018-10-12T00:15:59.000Z,20.70
2018-10-12T00:18:28.233Z,20.70
2018-10-12T00:20:57.197Z,20.70
2018-10-12T00:23:25.756Z,20.70
2018-10-12T00:25:54.323Z,20.70
2018-10-12T00:28:22.875Z,20.70
2018-10-12T00:30:51.503Z,20.70
2018-10-12T00:33:20.079Z,20.70
2018-10-12T00:35:48.667Z,20.70
2018-10-12T00:38:17.226Z,20.70
2018-10-12T00:40:45.824Z,20.70
2018-10-12T00:43:14.404Z,20.60
2018-10-12T00:45:43.079Z,20.70
2018-10-12T00:48:11.672Z,20.60
2018-10-12T00:50:40.272Z,20.60
2018-10-12T00:53:08.828Z,20.70
2018-10-12T00:55:37.397Z,20.70
2018-10-12T00:58:05.971Z,20.70
2018-10-12T01:00:34.537Z,20.60
2018-10-12T01:03:03.129Z,20.70
2018-10-12T01:05:31.722Z,20.70
2018-10-12T01:08:00.276Z,20.60
2018-10-12T01:10:28.856Z,20.60
2018-10-12T01:12:57.608Z,20.70
2018-10-12T01:15:26.173Z,20.70
2018-10-12T01:17:54.761Z,20.60
2018-10-12T01:20:23.819Z,20.60
2018-10-12T01:22:52.389Z,20.60
2018-10-12T01:25:20.952Z,20.70
2018-10-12T01:27:49.508Z,20.70
2018-10-12T01:30:18.073Z,20.60
2018-10-12T01:32:51.814Z,20.60
2018-10-12T01:35:20.392Z,20.60
2018-10-12T01:37:48.974Z,20.70
2018-10-12T01:40:17.588Z,20.60
2018-10-12T01:42:46.139Z,20.60
2018-10-12T01:45:14.711Z,20.60
2018-10-12T01:47:43.267Z,20.60
2018-10-12T01:50:11.846Z,20.60
2018-10-12T01:52:40.427Z,20.60
2018-10-12T01:55:09.015Z,20.60
2018-10-12T01:57:37.599Z,20.60
2018-10-12T02:00:06.331Z,20.60
2018-10-12T02:02:34.925Z,20.60
2018-10-12T02:05:03.556Z,20.60
2018-10-12T02:07:32.159Z,20.60
2018-10-12T02:10:00.759Z,20.60
2018-10-12T02:12:29.308Z,20.60
2018-10-12T02:14:57.895Z,20.60
2018-10-12T02:17:26.501Z,20.60
2018-10-12T02:19:55.717Z,20.60
2018-10-12T02:22:24.289Z,20.60
2018-10-12T02:24:52.916Z,20.60
2018-10-12T02:27:21.575Z,20.60
2018-10-12T02:29:50.135Z,20.60
2018-10-12T02:32:18.816Z,20.60
2018-10-12T02:34:47.398Z,20.60
2018-10-12T02:37:15.961Z,20.60
2018-10-12T02:39:44.534Z,20.60
2018-10-12T02:42:13.117Z,20.60
2018-10-12T02:44:41.659Z,20.60
2018-10-12T02:47:10.250Z,20.60
2018-10-12T02:49:38.828Z,20.60
2018-10-12T02:52:07.414Z,20.50
2018-10-12T02:54:36.004Z,20.60
2018-10-12T02:57:04.608Z,20.60
2018-10-12T02:59:33.188Z,20.60
2018-10-12T03:02:01.763Z,20.60
2018-10-12T03:04:30.352Z,20.50
2018-10-12T03:06:58.920Z,20.50
2018-10-12T03:09:27.983Z,20.50
2018-10-12T03:11:57.177Z,20.50
2018-10-12T03:14:26.182Z,20.50
2018-10-12T03:16:54.894Z,20.50
2018-10-12T03:19:23.440Z,20.50
2018-10-12T03:21:52.064Z,20.50
2018-10-12T03:24:20.663Z,20.50
2018-10-12T03:26:49.251Z,20.50
2018-10-12T03:29:17.880Z,20.50
2018-10-12T03:31:46.524Z,20.50
2018-10-12T03:34:15.085Z,20.50
2018-10-12T03:36:43.669Z,20.50
2018-10-12T03:39:12.280Z,20.50
2018-10-12T03:41:40.880Z,20.50
2018-10-12T03:44:09.440Z,20.50
2018-10-12T03:46:38.040Z,20.50
2018-10-12T03:49:06.639Z,20.50
2018-10-12T03:51:35.226Z,20.50
2018-10-12T03:54:03.802Z,20.50
2018-10-12T03:56:32.425Z,20.50
2018-10-12T04:01:29.832Z,20.50
2018-10-12T04:03:59.064Z,20.50
2018-10-12T04:06:28.093Z,20.50
2018-10-12T04:08:57.360Z,20.50
2018-10-12T04:11:26.608Z,20.50
2018-10-12T04:13:55.160Z,20.50
2018-10-12T04:16:23.736Z,20.50
2018-10-12T04:18:52.348Z,20.60
2018-10-12T04:21:22.020Z,20.60
2018-10-12T04:23:50.588Z,20.80
2018-10-12T04:26:19.901Z,20.90
2018-10-12T04:28:48.776Z,21.00
2018-10-12T04:31:17.891Z,21.20
2018-10-12T04:33:46.850Z,21.30
2018-10-12T04:36:15.680Z,21.70
2018-10-12T04:38:55.492Z,21.70
2018-10-12T04:41:25.252Z,21.90
2018-10-12T04:43:55.272Z,22.00
2018-10-12T04:46:40.888Z,22.10
2018-10-12T04:49:16.276Z,22.40
2018-10-12T04:51:47.292Z,22.50
2018-10-12T04:56:44.842Z,22.70
2018-10-12T04:59:13.440Z,22.70
2018-10-12T05:01:42.001Z,22.70
2018-10-12T05:04:10.587Z,22.80
2018-10-12T05:06:39.192Z,22.80
2018-10-12T05:09:08.868Z,22.90
2018-10-12T05:11:37.498Z,22.80
2018-10-12T05:14:06.288Z,22.80
2018-10-12T05:16:35.449Z,23.00
2018-10-12T05:19:04.002Z,22.90
2018-10-12T05:21:32.909Z,23.00
2018-10-12T05:24:01.804Z,22.90
2018-10-12T05:26:30.410Z,23.00
2018-10-12T05:28:59.029Z,22.90
2018-10-12T05:31:27.607Z,23.00
2018-10-12T05:33:56.673Z,23.10
2018-10-12T05:36:25.269Z,22.90
2018-10-12T05:38:53.832Z,22.90
2018-10-12T05:41:22.401Z,22.80
2018-10-12T05:43:51.054Z,22.70
2018-10-12T05:46:19.583Z,22.50
2018-10-12T05:48:59.217Z,22.30
2018-10-12T05:51:27.785Z,22.20
2018-10-12T05:53:56.380Z,22.00
2018-10-12T05:56:28.632Z,21.80
2018-10-12T05:58:57.220Z,21.70
2018-10-12T06:01:25.893Z,21.40
2018-10-12T06:03:54.468Z,21.40
2018-10-12T06:06:23.032Z,21.30
2018-10-12T06:08:51.619Z,21.20
2018-10-12T06:11:20.238Z,21.10
2018-10-12T06:13:48.820Z,21.00
2018-10-12T06:16:17.459Z,20.90
2018-10-12T06:18:46.100Z,20.80
2018-10-12T06:21:14.677Z,20.80
2018-10-12T06:23:43.252Z,20.70
2018-10-12T06:26:12.027Z,20.70
2018-10-12T06:28:40.616Z,20.60
2018-10-12T06:31:09.722Z,20.50
2018-10-12T06:33:38.284Z,20.50
2018-10-12T06:36:07.077Z,20.50
2018-10-12T06:38:35.644Z,20.40
2018-10-12T06:41:04.353Z,20.40
2018-10-12T06:43:32.843Z,20.30
2018-10-12T06:46:01.425Z,20.40
2018-10-12T06:48:29.988Z,20.30
2018-10-12T06:50:59.207Z,20.30
2018-10-12T06:53:28.541Z,20.30
2018-10-12T06:55:57.928Z,20.30
2018-10-12T06:58:26.733Z,20.30
2018-10-12T07:00:55.304Z,20.30
2018-10-12T07:03:23.925Z,20.30
2018-10-12T07:05:52.489Z,20.20
2018-10-12T07:08:21.067Z,20.20
2018-10-12T07:10:49.634Z,20.20
2018-10-12T07:13:18.234Z,20.20
2018-10-12T07:15:46.815Z,20.20
2018-10-12T07:18:15.395Z,20.20
2018-10-12T07:20:43.995Z,20.20
2018-10-12T07:23:12.635Z,20.20
2018-10-12T07:25:41.192Z,20.20
2018-10-12T07:28:09.737Z,20.20
2018-10-12T07:30:38.306Z,20.20
2018-10-12T07:33:06.881Z,20.20
2018-10-12T07:35:35.445Z,20.20
2018-10-12T07:38:04.051Z,20.20
2018-10-12T07:40:32.628Z,20.20
2018-10-12T07:43:01.260Z,20.10
2018-10-12T07:45:30.147Z,20.10
2018-10-12T07:47:59.290Z,20.10
2018-10-12T07:50:28.742Z,20.10
2018-10-12T07:52:57.730Z,20.10
2018-10-12T07:55:26.919Z,20.10
2018-10-12T07:57:55.513Z,20.10
2018-10-12T08:00:24.196Z,20.20
2018-10-12T08:02:52.839Z,20.10
2018-10-12T08:05:21.388Z,20.10
2018-10-12T08:07:49.972Z,20.10
2018-10-12T08:10:18.564Z,20.10
2018-10-12T08:12:47.137Z,20.10
2018-10-12T08:15:15.714Z,20.10
2018-10-12T08:17:45.175Z,20.10
2018-10-12T08:20:14.165Z,20.10
2018-10-12T08:22:42.709Z,20.10
2018-10-12T08:25:11.336Z,20.10
2018-10-12T08:27:39.963Z,20.10
2018-10-12T08:30:08.656Z,20.10
2018-10-12T08:32:37.304Z,20.10
2018-10-12T08:35:06.116Z,20.10
2018-10-12T08:37:34.672Z,20.10
2018-10-12T08:40:03.241Z,20.10
2018-10-12T08:42:31.812Z,20.20
2018-10-12T08:45:00.388Z,20.20
2018-10-12T08:47:28.960Z,20.10
2018-10-12T08:49:57.878Z,20.20
2018-10-12T08:52:26.479Z,20.20
2018-10-12T08:54:55.046Z,20.20
2018-10-12T08:57:24.020Z,20.10
2018-10-12T08:59:53.152Z,20.20
2018-10-12T09:02:21.709Z,20.20
2018-10-12T09:04:50.293Z,20.20
2018-10-12T09:07:18.864Z,20.20
2018-10-12T09:09:47.476Z,20.20
2018-10-12T09:12:16.320Z,20.20
2018-10-12T09:14:44.860Z,20.20
2018-10-12T09:17:13.492Z,20.20
2018-10-12T09:19:42.068Z,20.20
2018-10-12T09:22:10.640Z,20.20
2018-10-12T09:24:39.253Z,20.20
2018-10-12T09:27:07.844Z,20.20
2018-10-12T09:29:36.420Z,20.20
2018-10-12T09:32:05.096Z,20.20
2018-10-12T09:34:33.659Z,20.20
2018-10-12T09:37:02.331Z,20.20
2018-10-12T09:39:30.834Z,20.20
2018-10-12T09:41:59.715Z,20.20
2018-10-12T09:44:28.419Z,20.20
2018-10-12T09:46:57.000Z,20.20
2018-10-12T09:49:25.603Z,20.20
2018-10-12T09:51:54.340Z,20.30
2018-10-12T09:54:22.881Z,20.20
2018-10-12T09:56:56.819Z,20.20
2018-10-12T09:59:25.924Z,20.20
2018-10-12T10:01:59.923Z,20.30
2018-10-12T10:04:30.920Z,20.20
2018-10-12T10:07:00.204Z,20.30
2018-10-12T10:09:30.452Z,20.30
2018-10-12T10:11:59.382Z,20.30
2018-10-12T10:14:29.129Z,20.20
2018-10-12T10:16:58.797Z,20.20
2018-10-12T10:19:28.300Z,20.30
2018-10-12T10:21:56.997Z,20.30
2018-10-12T10:24:25.571Z,20.30
2018-10-12T10:26:54.225Z,20.30
2018-10-12T10:29:23.168Z,20.30
2018-10-12T10:31:51.974Z,20.30
2018-10-12T10:34:21.127Z,20.30
2018-10-12T10:36:50.054Z,20.30
2018-10-12T10:39:18.763Z,20.30
2018-10-12T10:41:47.356Z,20.30
2018-10-12T10:44:15.924Z,20.30
2018-10-12T10:46:45.187Z,20.30
2018-10-12T10:49:13.772Z,20.30
2018-10-12T10:51:42.365Z,20.30
2018-10-12T10:54:10.948Z,20.30
2018-10-12T10:56:39.528Z,20.30
2018-10-12T10:59:08.099Z,20.30
2018-10-12T11:01:36.672Z,20.30
2018-10-12T11:04:05.245Z,20.30
2018-10-12T11:06:33.797Z,20.30
2018-10-12T11:09:02.361Z,20.30
2018-10-12T11:11:30.940Z,20.30
2018-10-12T11:13:59.493Z,20.30
2018-10-12T11:16:28.060Z,20.30
2018-10-12T11:18:56.790Z,20.30
2018-10-12T11:21:25.343Z,20.30
2018-10-12T11:23:53.921Z,20.30
2018-10-12T11:26:22.527Z,20.30
2018-10-12T11:28:51.112Z,20.30
2018-10-12T11:31:19.683Z,20.30
2018-10-12T11:33:48.262Z,20.30
2018-10-12T11:36:16.836Z,20.30
2018-10-12T11:38:45.397Z,20.30
2018-10-12T11:41:13.957Z,20.40
2018-10-12T11:43:42.520Z,20.40
2018-10-12T11:46:11.170Z,20.40
2018-10-12T11:48:40.057Z,20.40
2018-10-12T11:51:08.749Z,20.40
2018-10-12T11:53:37.528Z,20.50
2018-10-12T11:56:06.083Z,20.50
2018-10-12T11:58:34.646Z,20.50
2018-10-12T12:01:03.258Z,20.50
2018-10-12T12:03:31.822Z,20.50
2018-10-12T12:06:00.393Z,20.50
2018-10-12T12:08:29.054Z,20.50
2018-10-12T12:10:57.628Z,20.40
2018-10-12T12:13:26.265Z,20.40
2018-10-12T12:15:54.805Z,20.40
2018-10-12T12:18:23.360Z,20.40
2018-10-12T12:20:51.904Z,20.50
2018-10-12T12:23:20.444Z,20.40
2018-10-12T12:25:49.040Z,20.50
2018-10-12T12:28:18.328Z,20.50
2018-10-12T12:30:48.062Z,20.50
2018-10-12T12:33:16.664Z,20.50
2018-10-12T12:35:45.714Z,20.50
2018-10-12T12:38:15.168Z,20.60
2018-10-12T12:40:43.887Z,20.60
2018-10-12T12:43:12.458Z,20.60
2018-10-12T12:45:41.064Z,20.70
2018-10-12T12:48:09.911Z,21.00
2018-10-12T12:50:38.284Z,21.10
2018-10-12T12:53:07.196Z,21.20
2018-10-12T12:55:35.764Z,21.30
2018-10-12T12:58:04.882Z,21.40
2018-10-12T13:00:33.486Z,21.40
2018-10-12T13:03:02.024Z,21.40
2018-10-12T13:05:30.594Z,21.40
2018-10-12T13:07:59.179Z,21.40
2018-10-12T13:10:27.753Z,21.50
2018-10-12T13:12:56.319Z,21.50
2018-10-12T13:15:24.968Z,21.50
2018-10-12T13:17:53.540Z,21.50
2018-10-12T13:20:22.084Z,21.60
2018-10-12T13:22:50.640Z,21.60
2018-10-12T13:25:19.260Z,21.60
2018-10-12T13:27:47.867Z,21.60
2018-10-12T13:30:16.454Z,21.60
2018-10-12T13:32:45.097Z,21.70
2018-10-12T13:35:13.676Z,21.80
2018-10-12T13:37:42.273Z,21.80
2018-10-12T13:40:10.806Z,21.90
2018-10-12T13:42:39.464Z,22.00
2018-10-12T13:45:08.196Z,22.00
2018-10-12T13:47:36.747Z,21.90
2018-10-12T13:50:06.352Z,22.10
2018-10-12T13:52:34.956Z,22.10
2018-10-12T13:55:03.542Z,22.10
2018-10-12T13:57:32.096Z,22.10
2018-10-12T14:00:00.677Z,22.10
2018-10-12T14:02:29.596Z,22.10
2018-10-12T14:04:59.157Z,22.00
2018-10-12T14:07:27.749Z,22.00
2018-10-12T14:09:56.311Z,22.00
2018-10-12T14:12:24.933Z,22.10
2018-10-12T14:14:53.455Z,22.10
2018-10-12T14:17:22.001Z,22.10
2018-10-12T14:19:50.633Z,22.10
2018-10-12T14:22:19.145Z,22.10
2018-10-12T14:24:47.714Z,22.10
2018-10-12T14:27:16.673Z,22.10
2018-10-12T14:29:45.232Z,22.10
2018-10-12T14:32:13.814Z,22.10
2018-10-12T14:34:42.356Z,22.10
2018-10-12T14:37:10.959Z,22.10
2018-10-12T14:39:39.535Z,22.20
2018-10-12T14:42:08.068Z,22.20
2018-10-12T14:44:36.657Z,22.20
2018-10-12T14:47:05.232Z,22.20
2018-10-12T14:49:33.800Z,22.20
2018-10-12T14:52:02.468Z,22.30
2018-10-12T14:54:31.037Z,22.30
2018-10-12T14:57:00.438Z,22.30
2018-10-12T14:59:30.029Z,22.30
2018-10-12T15:01:59.303Z,22.40
2018-10-12T15:04:28.535Z,22.40
2018-10-12T15:06:57.468Z,22.40
2018-10-12T15:09:26.041Z,22.30
2018-10-12T15:11:54.708Z,22.30
2018-10-12T15:15:27.352Z,22.30
2018-10-12T15:17:56.852Z,22.30
2018-10-12T15:20:26.233Z,22.30
2018-10-12T15:22:54.840Z,22.30
2018-10-12T15:25:23.458Z,22.20
2018-10-12T15:27:52.126Z,22.20
2018-10-12T15:30:21.117Z,22.20
2018-10-12T15:32:49.663Z,22.30
2018-10-12T15:35:18.207Z,22.30
2018-10-12T15:37:46.849Z,22.30
2018-10-12T15:40:15.334Z,22.40
2018-10-12T15:42:43.959Z,22.40
2018-10-12T15:45:12.569Z,22.40
2018-10-12T15:47:41.136Z,22.40
2018-10-12T15:50:09.708Z,22.40
2018-10-12T15:52:38.293Z,22.30
2018-10-12T15:55:06.904Z,22.30
2018-10-12T15:57:35.545Z,22.20
2018-10-12T16:00:04.163Z,22.20
2018-10-12T16:02:32.780Z,22.10
2018-10-12T16:05:01.388Z,22.00
2018-10-12T16:07:29.960Z,22.00
2018-10-12T16:09:58.548Z,22.00
2018-10-12T16:12:27.156Z,21.80
2018-10-12T16:14:55.736Z,21.80
2018-10-12T16:17:24.289Z,21.80
2018-10-12T16:19:52.871Z,21.70
2018-10-12T16:22:22.360Z,21.70
2018-10-12T16:25:02.180Z,21.70
2018-10-12T16:27:30.745Z,21.60
2018-10-12T16:29:59.346Z,21.60
2018-10-12T16:32:27.900Z,21.60
2018-10-12T16:34:56.460Z,21.60
2018-10-12T16:37:25.007Z,21.50
2018-10-12T16:39:53.624Z,21.50
2018-10-12T16:42:22.271Z,21.50
2018-10-12T16:44:50.863Z,21.50
2018-10-12T16:47:19.475Z,21.50
2018-10-12T16:49:48.088Z,21.50
2018-10-12T16:52:16.734Z,21.50
2018-10-12T16:54:45.664Z,21.50
2018-10-12T16:57:14.292Z,21.50
2018-10-12T16:59:42.896Z,21.60
2018-10-12T17:02:12.077Z,21.70
2018-10-12T17:04:40.688Z,21.80
2018-10-12T17:07:09.284Z,21.90
2018-10-12T17:09:37.852Z,22.10
2018-10-12T17:12:06.430Z,22.30
2018-10-12T17:14:35.092Z,22.50
2018-10-12T17:17:03.990Z,22.70
2018-10-12T17:19:32.649Z,23.00
2018-10-12T17:22:01.240Z,23.00
2018-10-12T17:24:30.427Z,23.20
2018-10-12T17:26:59.987Z,23.30
2018-10-12T17:29:29.433Z,23.40
2018-10-12T17:31:58.468Z,23.60
2018-10-12T17:34:27.066Z,23.60
2018-10-12T17:36:55.632Z,23.70
2018-10-12T17:39:24.826Z,23.70
2018-10-12T17:41:53.444Z,23.80
2018-10-12T17:44:22.020Z,23.80
2018-10-12T17:46:51.080Z,23.80
2018-10-12T17:49:19.681Z,24.00
2018-10-12T17:51:48.251Z,23.90
2018-10-12T17:54:16.867Z,23.80
2018-10-12T17:56:45.637Z,23.80
2018-10-12T17:59:14.231Z,23.70
2018-10-12T18:01:42.860Z,23.80
2018-10-12T18:04:11.471Z,23.90
2018-10-12T18:06:41.015Z,23.90
2018-10-12T18:09:09.827Z,23.90
2018-10-12T18:11:38.901Z,23.80
2018-10-12T18:14:07.547Z,23.70
2018-10-12T18:16:36.142Z,23.70
2018-10-12T18:19:04.747Z,23.90
2018-10-12T18:21:34.465Z,23.90
2018-10-12T18:24:03.077Z,23.80
2018-10-12T18:26:31.648Z,23.80
2018-10-12T18:29:00.520Z,23.80
2018-10-12T18:31:29.171Z,23.80
2018-10-12T18:34:00.320Z,23.70
2018-10-12T18:36:29.154Z,23.80
2018-10-12T18:38:57.791Z,23.80
2018-10-12T18:41:26.373Z,23.70
2018-10-12T18:43:55.128Z,23.70
2018-10-12T18:46:23.744Z,23.80
2018-10-12T18:48:52.429Z,23.80
2018-10-12T18:51:23.453Z,23.70
2018-10-12T18:53:52.187Z,23.70
2018-10-12T18:56:20.934Z,23.80
2018-10-12T18:58:49.536Z,23.70
2018-10-12T19:01:18.245Z,23.80
2018-10-12T19:03:46.851Z,23.90
2018-10-12T19:06:15.571Z,23.90
2018-10-12T19:08:44.197Z,23.90
2018-10-12T19:11:16.699Z,23.90
2018-10-12T19:13:45.412Z,23.90
2018-10-12T19:16:13.913Z,23.90
2018-10-12T19:18:42.520Z,23.80
2018-10-12T19:21:11.172Z,23.90
2018-10-12T19:23:40.128Z,24.00
2018-10-12T19:26:10.336Z,24.00
2018-10-12T19:28:38.952Z,24.00
2018-10-12T19:31:08.330Z,24.00
2018-10-12T19:33:37.788Z,24.00
2018-10-12T19:36:06.449Z,24.00
2018-10-12T19:38:35.711Z,24.00
2018-10-12T19:41:04.335Z,24.00
2018-10-12T19:43:32.892Z,24.00
2018-10-12T19:46:01.476Z,23.90
2018-10-12T19:48:30.046Z,23.90
2018-10-12T19:50:59.230Z,24.00
2018-10-12T19:53:27.833Z,23.90
2018-10-12T19:55:56.472Z,23.90
2018-10-12T19:58:25.041Z,23.90
2018-10-12T20:00:53.685Z,24.00
2018-10-12T20:05:50.561Z,23.80
2018-10-12T20:08:19.207Z,23.80
2018-10-12T20:10:47.771Z,23.80
2018-10-12T20:13:16.520Z,23.80
2018-10-12T20:15:45.176Z,23.80
2018-10-12T20:18:13.789Z,23.90
2018-10-12T20:20:42.395Z,24.00
2018-10-12T20:23:10.989Z,24.00
2018-10-12T20:25:39.613Z,23.90
2018-10-12T20:28:10.295Z,23.80
2018-10-12T20:30:39.001Z,23.80
2018-10-12T20:33:07.664Z,23.80
2018-10-12T20:35:36.264Z,23.80
2018-10-12T20:38:04.853Z,23.80
2018-10-12T20:40:33.440Z,23.80
2018-10-12T20:43:02.061Z,23.70
2018-10-12T20:45:31.023Z,23.80
2018-10-12T20:48:00.692Z,23.80
2018-10-12T20:52:57.587Z,23.80
2018-10-12T20:55:26.140Z,23.70
2018-10-12T20:57:54.789Z,23.90
2018-10-12T21:00:23.496Z,23.90
2018-10-12T21:02:52.447Z,23.80
2018-10-12T21:05:21.179Z,23.80
2018-10-12T21:07:49.823Z,23.80
2018-10-12T21:10:18.449Z,23.80
2018-10-12T21:12:47.018Z,23.80
2018-10-12T21:15:15.663Z,23.80
2018-10-12T21:17:44.303Z,23.90
2018-10-12T21:20:12.904Z,23.80
2018-10-12T21:22:41.488Z,23.80
2018-10-12T21:25:10.129Z,23.80
2018-10-12T21:27:38.743Z,23.90
2018-10-12T21:30:08.301Z,23.80
2018-10-12T21:32:36.868Z,23.80
2018-10-12T21:35:05.522Z,23.70
2018-10-12T21:37:34.121Z,23.80
2018-10-12T21:40:02.686Z,23.80
2018-10-12T21:42:31.272Z,23.70
2018-10-12T21:44:59.864Z,23.60
2018-10-12T21:47:28.522Z,23.60
2018-10-12T21:49:57.122Z,23.70
2018-10-12T21:52:25.707Z,23.80
2018-10-12T21:54:54.352Z,23.60
2018-10-12T21:57:22.913Z,23.70
2018-10-12T21:59:52.538Z,23.60
2018-10-12T22:02:21.156Z,23.70
2018-10-12T22:07:18.010Z,23.60
2018-10-12T22:09:46.668Z,23.60
2018-10-12T22:12:15.314Z,23.60
2018-10-12T22:14:43.911Z,23.60
2018-10-12T22:17:12.613Z,23.60
2018-10-12T22:19:41.224Z,23.60
2018-10-12T22:22:09.832Z,23.60
2018-10-12T22:24:38.400Z,23.60
2018-10-12T22:27:06.981Z,23.60
2018-10-12T22:29:35.570Z,23.60
2018-10-12T22:32:04.224Z,23.50
2018-10-12T22:34:32.848Z,23.70
2018-10-12T22:37:01.460Z,23.60
2018-10-12T22:39:30.063Z,23.60
2018-10-12T22:41:58.651Z,23.60
2018-10-12T22:44:27.231Z,23.50
2018-10-12T22:46:55.786Z,23.50
2018-10-12T22:49:24.396Z,23.50
2018-10-12T22:51:53.037Z,23.50
2018-10-12T22:54:21.612Z,23.60
2018-10-12T22:56:50.237Z,23.50
2018-10-12T22:59:18.910Z,23.60
2018-10-12T23:01:47.498Z,23.50
2018-10-12T23:04:16.092Z,23.50
2018-10-12T23:06:44.664Z,23.60
2018-10-12T23:09:13.272Z,23.50
2018-10-12T23:11:41.881Z,23.60
2018-10-12T23:14:10.744Z,23.50
2018-10-12T23:16:39.395Z,23.40
2018-10-12T23:19:08.202Z,23.40
2018-10-12T23:21:36.782Z,23.40
2018-10-12T23:24:05.374Z,23.50
2018-10-12T23:26:33.946Z,23.40
2018-10-12T23:29:02.536Z,23.50
2018-10-12T23:31:31.208Z,23.50
2018-10-12T23:34:05.545Z,23.40
2018-10-12T23:36:34.152Z,23.50
2018-10-12T23:39:02.872Z,23.50
2018-10-12T23:41:31.516Z,23.60
2018-10-12T23:44:00.108Z,23.60
2018-10-12T23:46:28.752Z,23.60
2018-10-12T23:48:57.326Z,23.60
2018-10-12T23:51:25.892Z,23.60
2018-10-12T23:53:54.456Z,23.50
2018-10-12T23:56:23.014Z,23.60
2018-10-12T23:58:51.604Z,23.50
